Time;durP1;ratioP1;P1;durP2;ratioP2;P2;SDS_P1;SDS_P2;PMS_P1;PMS_P2;Temp;Humidity;BMP_temperature;BMP_pressure;BME280_temperature;BME280_humidity;BME280_pressure;Samples;Min_cycle;Max_cycle;Signal;HPM_P1;HPM_P2
2023/10/18 04:01:24;;;;;;;7.30;6.17;;;8.10;80.90;;;;;;5714036;23;20498;-71
2023/10/18 04:03:51;;;;;;;5.50;5.10;;;8.10;81.00;;;;;;4974398;28;20854;-72
2023/10/18 04:06:28;;;;;;;5.67;5.20;;;8.10;80.80;;;;;;4974521;28;20457;-72
2023/10/18 04:08:58;;;;;;;7.13;6.53;;;8.00;80.90;;;;;;4974584;28;20441;-72
2023/10/18 04:11:26;;;;;;;7.30;6.60;;;8.00;81.20;;;;;;4974612;28;20458;-72
2023/10/18 04:13:53;;;;;;;6.00;5.50;;;8.00;81.30;;;;;;4998126;23;20509;-71
2023/10/18 04:16:28;;;;;;;5.93;5.43;;;8.00;80.80;;;;;;4974376;28;20860;-71
2023/10/18 04:18:57;;;;;;;6.47;5.97;;;8.00;80.70;;;;;;4974062;28;20906;-71
2023/10/18 04:21:27;;;;;;;6.17;5.60;;;8.00;81.20;;;;;;4974319;28;20442;-71
2023/10/18 04:23:56;;;;;;;6.70;6.10;;;7.90;81.30;;;;;;4974201;28;20497;-71
2023/10/18 04:26:25;;;;;;;6.47;5.97;;;7.90;81.40;;;;;;4974288;28;20456;-71
2023/10/18 04:28:57;;;;;;;6.67;6.10;;;7.90;81.50;;;;;;4974515;28;20494;-71
2023/10/18 04:31:25;;;;;;;6.83;6.23;;;7.90;81.20;;;;;;4974313;28;20486;-71
2023/10/18 04:33:54;;;;;;;6.50;6.00;;;7.80;81.80;;;;;;4974702;28;20473;-71
2023/10/18 04:36:22;;;;;;;6.60;6.00;;;7.90;81.80;;;;;;4974194;28;20947;-71
2023/10/18 04:38:49;;;;;;;6.63;6.13;;;7.90;81.50;;;;;;4974180;28;20536;-71
2023/10/18 04:41:28;;;;;;;6.67;6.10;;;7.90;81.80;;;;;;4974132;28;20450;-71
2023/10/18 04:44:05;;;;;;;6.93;6.33;;;7.90;81.80;;;;;;4974049;28;20856;-71
2023/10/18 04:46:32;;;;;;;6.40;5.80;;;7.90;81.50;;;;;;4974090;28;20430;-71
2023/10/18 04:49:16;;;;;;;7.17;6.47;;;8.00;81.40;;;;;;4974026;28;20449;-71
2023/10/18 04:51:48;;;;;;;6.73;6.20;;;8.00;81.50;;;;;;4974360;28;20431;-71
2023/10/18 04:54:27;;;;;;;7.00;6.50;;;8.00;81.30;;;;;;4974039;28;20905;-71
2023/10/18 04:56:56;;;;;;;6.43;5.93;;;8.00;81.40;;;;;;4973742;28;20485;-71
2023/10/18 04:59:35;;;;;;;6.87;6.27;;;7.90;81.00;;;;;;4973984;28;20453;-71
2023/10/18 05:02:00;;;;;;;6.70;6.10;;;7.90;81.30;;;;;;4973940;28;20430;-71
2023/10/18 05:04:32;;;;;;;7.47;6.87;;;7.90;80.90;;;;;;4973554;28;20658;-71
2023/10/18 05:07:01;;;;;;;6.73;6.13;;;7.90;81.00;;;;;;4973979;28;20294;-71
2023/10/18 05:09:33;;;;;;;6.13;5.63;;;7.90;81.00;;;;;;4973899;28;20456;-70
2023/10/18 05:12:04;;;;;;;7.30;6.67;;;7.90;80.70;;;;;;4973612;28;21019;-71
2023/10/18 05:14:40;;;;;;;6.33;5.83;;;7.90;80.80;;;;;;4973360;28;21006;-71
2023/10/18 05:17:10;;;;;;;6.27;5.77;;;7.90;80.60;;;;;;4973854;28;20462;-71
2023/10/18 05:19:41;;;;;;;7.20;6.60;;;7.90;80.50;;;;;;4974060;28;20434;-71
2023/10/18 05:22:09;;;;;;;6.63;6.03;;;7.90;80.50;;;;;;4976019;28;20507;-71
2023/10/18 05:24:38;;;;;;;7.67;7.07;;;7.90;80.40;;;;;;4977114;28;20470;-71
2023/10/18 05:27:19;;;;;;;6.00;5.50;;;7.80;80.50;;;;;;4976823;28;20866;-71
2023/10/18 05:29:52;;;;;;;7.37;6.77;;;7.80;80.60;;;;;;4977205;28;20434;-71
2023/10/18 05:32:37;;;;;;;6.23;5.70;;;7.80;80.80;;;;;;4977962;28;20511;-71
2023/10/18 05:35:19;;;;;;;7.33;6.73;;;7.80;80.80;;;;;;4976995;28;20470;-71
2023/10/18 05:38:06;;;;;;;8.30;7.67;;;7.80;80.70;;;;;;4976981;28;20434;-71
2023/10/18 05:43:29;;;;;;;9.20;8.50;;;7.70;81.00;;;;;;4975626;28;20563;-72
2023/10/18 05:45:57;;;;;;;8.73;8.03;;;7.70;81.10;;;;;;4976546;28;20849;-71
2023/10/18 05:48:24;;;;;;;8.60;7.90;;;7.80;80.90;;;;;;4976836;28;20485;-71
2023/10/18 05:51:01;;;;;;;8.70;8.00;;;7.70;81.20;;;;;;4976725;28;20470;-71
2023/10/18 05:53:30;;;;;;;8.77;7.97;;;7.70;81.30;;;;;;4976671;28;20462;-71
2023/10/18 05:55:57;;;;;;;8.60;7.90;;;7.70;81.80;;;;;;4976718;28;20490;-71
2023/10/18 05:58:27;;;;;;;8.97;7.80;;;7.80;81.90;;;;;;4976664;28;20445;-71
2023/10/18 06:00:56;;;;;;;8.10;7.40;;;7.80;81.80;;;;;;4976558;28;20450;-71
2023/10/18 06:03:25;;;;;;;8.20;7.60;;;7.80;81.90;;;;;;4976047;28;20935;-71
2023/10/18 06:05:53;;;;;;;8.30;7.70;;;7.90;81.90;;;;;;4976493;28;20485;-71
2023/10/18 06:08:22;;;;;;;7.30;6.70;;;7.90;82.20;;;;;;4976443;28;20541;-71
2023/10/18 06:10:55;;;;;;;9.03;8.27;;;7.90;82.10;;;;;;4976416;28;20537;-72
2023/10/18 06:13:22;;;;;;;7.33;6.73;;;8.00;82.10;;;;;;4975896;28;20892;-71
2023/10/18 06:15:50;;;;;;;8.43;7.63;;;8.00;82.20;;;;;;4976351;28;20502;-71
2023/10/18 06:18:18;;;;;;;7.93;7.27;;;8.10;82.30;;;;;;4975945;28;20450;-71
2023/10/18 06:20:45;;;;;;;8.03;7.33;;;8.20;82.10;;;;;;4976221;28;20544;-71
2023/10/18 06:25:57;;;;;;;8.20;7.50;;;8.30;82.20;;;;;;4975763;28;20430;-71
2023/10/18 06:28:25;;;;;;;7.50;6.90;;;8.40;81.90;;;;;;4976132;28;20430;-71
2023/10/18 06:30:52;;;;;;;7.90;7.30;;;8.40;81.80;;;;;;4975998;28;20449;-71
2023/10/18 06:33:19;;;;;;;7.83;7.13;;;8.50;81.80;;;;;;4975298;28;20497;-71
2023/10/18 06:35:51;;;;;;;8.33;7.53;;;8.60;81.70;;;;;;4975942;28;20442;-71
2023/10/18 06:38:18;;;;;;;8.03;7.30;;;8.70;81.40;;;;;;4975943;28;20429;-71
2023/10/18 06:40:50;;;;;;;9.00;8.30;;;8.70;81.20;;;;;;4975747;28;20449;-71
2023/10/18 06:43:20;;;;;;;8.30;7.60;;;8.80;80.80;;;;;;4976071;28;20826;-72
2023/10/18 06:45:48;;;;;;;7.63;6.93;;;8.80;81.00;;;;;;4975801;28;20541;-71
2023/10/18 06:48:15;;;;;;;8.37;7.67;;;8.80;80.90;;;;;;4975727;28;20858;-72
2023/10/18 06:50:46;;;;;;;10.50;7.67;;;8.90;80.50;;;;;;4975831;28;20446;-72
2023/10/18 06:53:14;;;;;;;7.80;7.00;;;8.90;80.20;;;;;;4975537;28;20477;-71
2023/10/18 06:55:44;;;;;;;7.67;7.07;;;8.90;80.20;;;;;;4975572;28;20539;-72
2023/10/18 06:58:15;;;;;;;9.33;8.53;;;8.90;80.10;;;;;;4975565;28;20489;-71
2023/10/18 07:00:51;;;;;;;8.63;7.80;;;8.90;80.30;;;;;;4975476;28;20542;-71
2023/10/18 07:03:18;;;;;;;7.30;6.60;;;8.80;80.40;;;;;;4975345;28;20523;-72
2023/10/18 07:05:49;;;;;;;8.50;7.80;;;8.90;80.70;;;;;;4975078;28;20446;-72
2023/10/18 07:08:25;;;;;;;8.20;7.50;;;9.00;80.30;;;;;;4975372;28;20873;-72
2023/10/18 07:10:55;;;;;;;8.30;7.60;;;8.80;80.40;;;;;;4975288;28;20449;-71
2023/10/18 07:13:32;;;;;;;8.43;7.73;;;8.80;80.90;;;;;;4975084;28;20454;-72
2023/10/18 07:16:03;;;;;;;7.47;6.80;;;8.80;81.20;;;;;;4975255;28;20430;-71
2023/10/18 07:18:33;;;;;;;8.50;7.90;;;8.70;81.50;;;;;;4975180;28;20524;-72
2023/10/18 07:21:05;;;;;;;7.60;6.90;;;8.60;82.30;;;;;;4975073;28;20438;-72
2023/10/18 07:23:36;;;;;;;8.90;8.20;;;8.50;82.60;;;;;;4974934;28;20485;-72
2023/10/18 07:26:03;;;;;;;8.23;7.60;;;8.50;82.90;;;;;;4975057;28;20430;-72
2023/10/18 07:28:35;;;;;;;8.20;7.57;;;8.70;82.60;;;;;;4975219;28;20463;-71
2023/10/18 07:31:08;;;;;;;8.23;7.63;;;8.60;82.20;;;;;;4974675;28;20434;-72
2023/10/18 07:33:40;;;;;;;8.57;7.87;;;8.60;82.40;;;;;;4974855;28;20549;-72
2023/10/18 07:36:08;;;;;;;8.37;7.63;;;8.60;83.00;;;;;;4974870;28;20517;-72
2023/10/18 07:38:37;;;;;;;8.30;7.57;;;8.90;83.10;;;;;;4974832;28;20445;-71
2023/10/18 07:41:07;;;;;;;8.00;7.00;;;9.50;82.10;;;;;;4974490;28;20458;-71
2023/10/18 07:43:34;;;;;;;7.40;6.60;;;9.80;79.20;;;;;;4974538;28;20572;-72
2023/10/18 07:46:09;;;;;;;9.33;6.77;;;10.20;77.50;;;;;;4973806;28;20442;-72
2023/10/18 07:48:37;;;;;;;7.43;6.83;;;10.40;76.70;;;;;;4974758;28;20429;-72
2023/10/18 07:51:21;;;;;;;7.73;7.13;;;10.50;75.40;;;;;;4974823;28;20446;-71
2023/10/18 07:53:48;;;;;;;7.20;6.60;;;10.40;75.90;;;;;;4974590;28;20828;-71
2023/10/18 07:56:16;;;;;;;7.37;6.80;;;10.60;75.60;;;;;;4974516;28;20485;-71
2023/10/18 07:58:48;;;;;;;6.90;6.30;;;10.60;75.00;;;;;;4974510;28;20453;-72
2023/10/18 08:01:37;;;;;;;7.10;6.50;;;10.70;75.60;;;;;;4974975;28;20458;-72
2023/10/18 08:04:04;;;;;;;7.17;6.47;;;10.80;75.60;;;;;;4974362;28;20490;-72
2023/10/18 08:06:33;;;;;;;8.23;7.53;;;11.00;74.90;;;;;;4974137;28;20900;-72
2023/10/18 08:09:04;;;;;;;7.20;6.60;;;11.30;74.80;;;;;;4974328;28;20446;-72
2023/10/18 08:11:32;;;;;;;6.70;6.20;;;11.40;73.90;;;;;;4974462;28;20462;-72
2023/10/18 08:13:59;;;;;;;7.00;6.40;;;11.80;73.70;;;;;;4974050;28;20484;-72
2023/10/18 08:16:27;;;;;;;6.63;6.13;;;12.10;71.70;;;;;;4974374;28;20493;-72
2023/10/18 08:18:57;;;;;;;7.20;6.70;;;11.80;73.10;;;;;;4974370;28;20482;-71
2023/10/18 08:21:28;;;;;;;7.13;6.53;;;11.50;73.70;;;;;;4974224;28;20899;-73
2023/10/18 08:23:56;;;;;;;7.20;6.60;;;11.60;76.10;;;;;;4973866;28;20485;-72
2023/10/18 08:26:26;;;;;;;6.90;6.20;;;11.80;74.00;;;;;;4973938;28;21004;-71
2023/10/18 08:28:54;;;;;;;6.20;5.70;;;11.30;74.40;;;;;;4974213;28;20449;-71
2023/10/18 08:31:33;;;;;;;6.70;6.20;;;11.30;75.50;;;;;;4974243;28;20442;-72
2023/10/18 08:34:05;;;;;;;6.93;6.43;;;11.30;73.70;;;;;;4974162;28;20497;-72
2023/10/18 08:36:32;;;;;;;6.70;6.20;;;11.10;74.80;;;;;;4974150;28;20431;-72
2023/10/18 08:39:01;;;;;;;6.93;6.40;;;11.10;75.40;;;;;;4974131;28;20468;-72
2023/10/18 08:41:32;;;;;;;6.47;5.97;;;11.00;75.10;;;;;;4974095;28;20525;-72
2023/10/18 08:44:15;;;;;;;6.93;6.43;;;11.30;75.30;;;;;;4974025;28;20518;-72
2023/10/18 08:46:46;;;;;;;7.40;6.80;;;11.30;75.70;;;;;;4974078;28;20438;-71
2023/10/18 08:49:15;;;;;;;6.23;5.77;;;11.10;76.00;;;;;;4974050;28;20521;-72
2023/10/18 08:51:45;;;;;;;6.50;5.90;;;11.20;76.70;;;;;;4974061;28;20478;-71
2023/10/18 08:54:19;;;;;;;5.30;4.90;;;11.20;76.00;;;;;;4973916;28;20497;-72
2023/10/18 08:56:47;;;;;;;6.50;6.00;;;11.30;76.10;;;;;;4975855;28;20464;-73
2023/10/18 08:59:18;;;;;;;6.80;6.30;;;11.40;76.40;;;;;;4977694;28;20947;-72
2023/10/18 09:02:08;;;;;;;6.23;5.83;;;11.30;77.10;;;;;;4977864;28;20477;-73
2023/10/18 09:04:32;;;;;;;5.53;5.03;;;11.60;76.80;;;;;;4977095;28;20503;-72
2023/10/18 09:07:18;;;;;;;5.90;5.50;;;11.50;75.10;;;;;;4977602;28;20431;-72
2023/10/18 09:09:53;;;;;;;6.13;5.67;;;11.60;75.10;;;;;;4977492;28;20512;-74
2023/10/18 09:12:31;;;;;;;6.00;5.50;;;11.80;75.70;;;;;;4977480;28;20425;-72
2023/10/18 09:14:58;;;;;;;6.67;6.17;;;11.80;75.00;;;;;;4977194;28;20473;-73
2023/10/18 09:17:25;;;;;;;6.90;6.30;;;11.90;74.90;;;;;;4977590;28;20449;-73
2023/10/18 09:19:56;;;;;;;7.00;6.40;;;11.90;74.40;;;;;;4977441;28;20450;-73
2023/10/18 09:22:23;;;;;;;6.27;5.67;;;12.00;74.30;;;;;;4977337;28;20430;-72
2023/10/18 09:24:50;;;;;;;7.27;6.77;;;12.00;74.00;;;;;;4977099;28;20482;-73
2023/10/18 09:27:18;;;;;;;7.00;6.40;;;12.10;74.50;;;;;;4977189;28;20446;-72
2023/10/18 09:29:47;;;;;;;6.30;5.73;;;12.30;74.30;;;;;;4977189;28;20469;-73
2023/10/18 09:32:32;;;;;;;8.00;6.20;;;12.10;73.60;;;;;;4977036;28;20457;-72
2023/10/18 09:35:07;;;;;;;5.80;5.37;;;12.10;73.80;;;;;;4977000;28;20536;-72
2023/10/18 09:37:36;;;;;;;7.53;6.93;;;12.20;74.00;;;;;;4977042;28;20516;-71
2023/10/18 09:40:03;;;;;;;6.00;5.60;;;12.20;73.60;;;;;;4976700;28;20881;-74
2023/10/18 09:42:30;;;;;;;6.60;6.00;;;12.20;73.00;;;;;;4976999;28;20450;-72
2023/10/18 09:44:57;;;;;;;6.90;6.30;;;12.20;74.10;;;;;;4976764;28;20562;-72
2023/10/18 09:47:24;;;;;;;6.33;5.73;;;12.30;74.30;;;;;;4976992;28;20446;-72
2023/10/18 09:49:51;;;;;;;6.90;5.93;;;12.20;73.20;;;;;;4976811;28;20846;-72
2023/10/18 09:52:21;;;;;;;7.20;6.57;;;12.30;73.90;;;;;;4976787;28;20442;-71
2023/10/18 09:54:50;;;;;;;7.80;7.10;;;12.40;72.80;;;;;;4976664;28;20462;-71
2023/10/18 09:57:23;;;;;;;6.43;5.93;;;12.70;72.70;;;;;;4977380;28;20473;-72
2023/10/18 09:59:54;;;;;;;7.00;6.50;;;12.60;72.30;;;;;;4977886;28;20431;-72
2023/10/18 10:02:23;;;;;;;6.97;6.47;;;12.40;73.10;;;;;;4976612;28;20431;-73
2023/10/18 10:04:52;;;;;;;6.70;6.10;;;12.50;72.90;;;;;;4976338;28;20544;-74
2023/10/18 10:07:37;;;;;;;6.13;5.63;;;12.40;73.00;;;;;;4975796;28;20549;-72
2023/10/18 10:10:08;;;;;;;7.73;7.13;;;12.50;73.10;;;;;;4976451;28;20602;-72
2023/10/18 10:12:36;;;;;;;6.90;6.30;;;12.60;73.20;;;;;;4976337;28;20438;-74
2023/10/18 10:15:13;;;;;;;7.70;7.10;;;12.60;72.70;;;;;;5078303;23;20501;-73
2023/10/18 10:17:45;;;;;;;6.07;5.47;;;12.60;73.20;;;;;;4976809;28;20854;-74
2023/10/18 10:20:14;;;;;;;6.53;5.90;;;12.50;73.00;;;;;;4977058;28;20856;-72
2023/10/18 10:22:45;;;;;;;7.00;6.40;;;12.40;73.20;;;;;;4976594;28;20448;-73
2023/10/18 10:25:19;;;;;;;7.13;6.53;;;12.50;73.60;;;;;;4976467;28;20516;-72
2023/10/18 10:27:53;;;;;;;6.57;6.07;;;12.50;72.90;;;;;;4976911;28;20431;-73
2023/10/18 10:30:28;;;;;;;7.53;6.03;;;12.50;73.20;;;;;;4976761;28;20533;-73
2023/10/18 10:32:59;;;;;;;5.67;5.27;;;12.60;73.40;;;;;;4976725;28;20908;-74
2023/10/18 10:35:27;;;;;;;6.23;5.73;;;12.80;72.80;;;;;;4976185;28;20466;-72
2023/10/18 10:38:00;;;;;;;5.80;5.30;;;12.90;72.30;;;;;;4976195;28;20458;-72
2023/10/18 10:40:38;;;;;;;5.83;5.33;;;13.10;72.00;;;;;;4976417;28;20450;-71
2023/10/18 10:43:09;;;;;;;6.00;5.50;;;13.20;71.90;;;;;;4976279;28;20508;-74
2023/10/18 10:45:38;;;;;;;5.13;4.73;;;13.30;71.70;;;;;;4976416;28;20526;-75
2023/10/18 10:48:31;;;;;;;5.53;5.13;;;13.50;70.90;;;;;;4976914;28;20454;-74
2023/10/18 10:51:06;;;;;;;5.30;4.90;;;13.80;70.40;;;;;;4976107;28;20450;-73
2023/10/18 10:53:36;;;;;;;4.43;4.03;;;13.90;70.20;;;;;;4975947;28;20907;-73
2023/10/18 10:56:16;;;;;;;4.97;4.57;;;14.00;69.30;;;;;;4975843;28;20491;-72
2023/10/18 10:58:46;;;;;;;5.47;4.97;;;13.90;69.80;;;;;;4975878;28;20434;-73
2023/10/18 11:01:15;;;;;;;5.10;4.70;;;14.00;69.50;;;;;;4976789;28;20500;-73
2023/10/18 11:03:54;;;;;;;4.90;4.50;;;14.30;68.90;;;;;;4976137;28;20449;-72
2023/10/18 11:06:22;;;;;;;5.23;4.83;;;14.50;68.10;;;;;;4976152;28;20439;-75
2023/10/18 11:08:52;;;;;;;4.90;4.40;;;14.50;67.90;;;;;;4977088;28;20473;-72
2023/10/18 11:11:20;;;;;;;5.10;4.60;;;14.60;67.60;;;;;;4975287;28;20940;-73
2023/10/18 11:13:47;;;;;;;5.00;4.60;;;14.50;67.40;;;;;;4975362;28;20456;-72
2023/10/18 11:16:16;;;;;;;5.00;4.70;;;14.40;67.30;;;;;;4975480;28;20446;-72
2023/10/18 11:18:43;;;;;;;5.47;4.20;;;14.30;68.30;;;;;;4975644;28;20501;-73
2023/10/18 11:21:19;;;;;;;4.80;4.50;;;14.20;68.20;;;;;;4975437;28;20453;-72
2023/10/18 11:23:50;;;;;;;4.70;4.30;;;14.20;68.40;;;;;;4975151;28;20488;-70
2023/10/18 11:26:24;;;;;;;4.50;4.10;;;14.30;69.00;;;;;;4975175;28;20438;-72
2023/10/18 11:28:55;;;;;;;4.20;3.90;;;14.40;67.80;;;;;;4975969;28;20466;-71
2023/10/18 11:31:26;;;;;;;5.33;4.93;;;14.40;68.00;;;;;;4975604;28;20430;-72
2023/10/18 11:33:58;;;;;;;5.17;4.73;;;14.50;68.40;;;;;;4975301;28;21027;-72
2023/10/18 11:36:27;;;;;;;4.40;4.10;;;14.40;68.20;;;;;;4975817;28;20426;-73
2023/10/18 11:39:18;;;;;;;4.50;3.77;;;14.50;68.10;;;;;;4975290;28;21042;-72
2023/10/18 11:41:52;;;;;;;4.13;3.83;;;14.60;68.20;;;;;;4975263;28;20434;-72
2023/10/18 11:44:30;;;;;;;3.60;3.30;;;14.60;66.50;;;;;;4975250;28;20494;-72
2023/10/18 11:47:02;;;;;;;3.10;2.80;;;14.60;66.40;;;;;;4975130;28;20442;-72
2023/10/18 11:49:36;;;;;;;3.80;3.50;;;14.50;66.70;;;;;;4975379;28;20437;-72
2023/10/18 11:52:04;;;;;;;3.20;2.90;;;14.60;66.30;;;;;;4975510;28;20476;-72
2023/10/18 11:54:32;;;;;;;3.50;3.20;;;14.70;66.70;;;;;;4975080;28;20462;-72
2023/10/18 11:57:01;;;;;;;3.53;3.23;;;14.70;66.10;;;;;;4975651;28;20514;-74
2023/10/18 11:59:29;;;;;;;3.27;2.97;;;15.00;66.70;;;;;;4975182;28;20453;-72
2023/10/18 12:01:57;;;;;;;3.07;2.77;;;15.10;65.00;;;;;;4975690;28;20871;-73
2023/10/18 12:04:28;;;;;;;3.40;3.10;;;15.20;65.60;;;;;;4975833;28;20485;-73
2023/10/18 12:06:56;;;;;;;2.90;2.70;;;15.20;65.40;;;;;;4975828;28;20454;-72
2023/10/18 12:09:26;;;;;;;3.23;2.93;;;15.30;65.70;;;;;;4975128;28;20474;-72
2023/10/18 12:11:54;;;;;;;3.60;3.00;;;15.40;64.90;;;;;;4975669;28;20443;-72
2023/10/18 12:14:23;;;;;;;3.03;2.67;;;15.30;64.30;;;;;;4974485;28;21010;-72
2023/10/18 12:16:52;;;;;;;3.00;2.80;;;15.30;65.40;;;;;;4974761;28;20451;-72
2023/10/18 12:19:19;;;;;;;4.20;3.30;;;15.20;64.70;;;;;;4974803;28;20524;-72
2023/10/18 12:21:54;;;;;;;3.43;2.90;;;15.30;64.80;;;;;;4975108;28;20476;-74
2023/10/18 12:24:21;;;;;;;2.97;2.70;;;15.20;64.70;;;;;;4975026;28;20492;-71
2023/10/18 12:26:53;;;;;;;3.23;2.93;;;15.10;65.30;;;;;;4974100;28;20540;-72
2023/10/18 12:29:26;;;;;;;2.93;2.73;;;15.20;65.30;;;;;;4974557;28;20461;-72
2023/10/18 12:31:55;;;;;;;3.83;3.30;;;15.10;65.00;;;;;;4977394;28;20442;-72
2023/10/18 12:34:28;;;;;;;3.30;2.90;;;15.00;65.30;;;;;;4978465;28;20458;-72
2023/10/18 12:36:57;;;;;;;3.00;2.80;;;14.80;65.60;;;;;;4978679;28;20434;-72
2023/10/18 12:39:25;;;;;;;2.90;2.70;;;14.70;65.90;;;;;;4978483;28;20442;-72
2023/10/18 12:41:53;;;;;;;3.03;2.73;;;14.60;65.50;;;;;;4978219;28;20490;-73
2023/10/18 12:44:25;;;;;;;3.60;3.30;;;14.60;65.80;;;;;;4978062;28;20462;-70
2023/10/18 12:46:53;;;;;;;3.93;2.90;;;14.60;65.80;;;;;;4978348;28;20441;-70
2023/10/18 12:49:23;;;;;;;3.10;2.70;;;14.40;65.70;;;;;;4978201;28;20447;-71
2023/10/18 12:52:00;;;;;;;3.50;3.20;;;14.30;66.70;;;;;;4978277;28;20449;-72
2023/10/18 12:54:30;;;;;;;2.70;2.50;;;14.50;66.80;;;;;;4978210;28;20469;-71
2023/10/18 12:56:58;;;;;;;3.77;2.57;;;14.60;64.70;;;;;;4978279;28;20513;-71
2023/10/18 12:59:34;;;;;;;2.70;2.50;;;14.70;64.90;;;;;;4977791;28;20449;-72
2023/10/18 13:02:04;;;;;;;2.90;2.43;;;14.80;65.10;;;;;;4977855;28;20463;-72
2023/10/18 13:04:30;;;;;;;3.07;2.77;;;14.80;64.90;;;;;;4977699;28;20501;-72
2023/10/18 13:07:09;;;;;;;2.70;2.33;;;14.80;64.30;;;;;;4977697;28;20784;-71
2023/10/18 13:09:43;;;;;;;2.50;2.30;;;14.80;63.40;;;;;;4977865;28;20277;-71
2023/10/18 13:12:12;;;;;;;2.90;1.93;;;14.70;63.70;;;;;;4977741;28;20465;-71
2023/10/18 13:14:41;;;;;;;3.10;2.20;;;14.50;64.10;;;;;;4977218;28;20581;-71
2023/10/18 13:17:10;;;;;;;1.80;1.50;;;14.60;64.50;;;;;;4977334;28;20456;-71
2023/10/18 13:19:41;;;;;;;2.50;2.20;;;14.50;65.00;;;;;;4977734;28;20449;-73
2023/10/18 13:22:16;;;;;;;2.50;2.03;;;14.60;64.20;;;;;;4977890;28;20858;-74
2023/10/18 13:24:43;;;;;;;2.43;2.23;;;14.60;65.00;;;;;;4977270;28;20493;-72
2023/10/18 13:27:14;;;;;;;2.50;2.20;;;14.50;65.10;;;;;;4977412;28;20442;-71
2023/10/18 13:29:49;;;;;;;2.83;2.53;;;14.50;66.10;;;;;;4977841;28;20450;-71
2023/10/18 13:32:18;;;;;;;4.73;2.60;;;14.60;66.10;;;;;;4977864;28;20433;-74
2023/10/18 13:34:45;;;;;;;2.30;2.10;;;14.40;66.00;;;;;;4977832;28;20466;-71
2023/10/18 13:37:12;;;;;;;2.87;2.60;;;14.40;66.40;;;;;;4977388;28;20473;-72
2023/10/18 13:39:39;;;;;;;2.50;2.30;;;14.30;67.10;;;;;;4977100;28;20880;-72
2023/10/18 13:42:07;;;;;;;2.87;2.40;;;14.30;67.10;;;;;;4976951;28;20533;-72
2023/10/18 13:44:33;;;;;;;3.10;2.87;;;14.20;67.50;;;;;;4977046;28;20461;-72
2023/10/18 13:47:01;;;;;;;3.70;2.50;;;14.10;68.20;;;;;;4977256;28;20450;-72
2023/10/18 13:49:28;;;;;;;4.07;3.33;;;14.20;68.80;;;;;;4976601;28;20927;-72
2023/10/18 13:51:55;;;;;;;2.77;2.33;;;14.20;68.80;;;;;;4976862;28;20457;-72
2023/10/18 13:54:22;;;;;;;2.57;2.37;;;14.20;69.10;;;;;;4976345;28;20872;-73
2023/10/18 13:56:49;;;;;;;3.37;3.10;;;14.10;69.60;;;;;;4976690;28;20446;-73
2023/10/18 13:59:16;;;;;;;3.40;3.10;;;14.10;70.10;;;;;;4976664;28;20859;-72
2023/10/18 14:01:43;;;;;;;2.93;2.73;;;14.10;70.30;;;;;;4976633;28;20450;-73
2023/10/18 14:04:13;;;;;;;3.27;2.97;;;14.20;70.50;;;;;;4976511;28;20494;-73
2023/10/18 14:06:41;;;;;;;3.10;2.90;;;14.10;70.30;;;;;;4976265;28;21022;-73
2023/10/18 14:09:11;;;;;;;3.27;2.97;;;14.20;70.10;;;;;;4976354;28;20967;-73
2023/10/18 14:11:40;;;;;;;3.77;3.43;;;14.20;70.60;;;;;;4976576;28;20426;-72
2023/10/18 14:14:07;;;;;;;4.07;2.93;;;14.30;70.40;;;;;;4976104;28;20979;-72
2023/10/18 14:16:37;;;;;;;2.87;2.67;;;14.30;70.30;;;;;;4976496;28;20462;-72
2023/10/18 14:19:05;;;;;;;2.90;2.60;;;14.20;70.20;;;;;;4976372;28;20457;-72
2023/10/18 14:21:38;;;;;;;2.57;2.37;;;14.10;70.40;;;;;;4976451;28;20864;-73
2023/10/18 14:24:05;;;;;;;3.50;3.20;;;14.00;71.10;;;;;;4976662;28;20820;-73
2023/10/18 14:26:34;;;;;;;3.53;3.23;;;13.90;71.80;;;;;;4976217;28;20569;-73
2023/10/18 14:29:02;;;;;;;3.37;3.07;;;13.90;71.90;;;;;;4976221;28;20970;-72
2023/10/18 14:31:29;;;;;;;4.80;2.77;;;13.90;71.90;;;;;;4976313;28;20541;-72
2023/10/18 14:33:56;;;;;;;3.20;2.90;;;13.90;72.20;;;;;;4976385;28;20462;-74
2023/10/18 14:36:23;;;;;;;2.93;2.63;;;14.00;72.40;;;;;;4977182;28;20452;-73
2023/10/18 14:38:51;;;;;;;3.30;3.00;;;14.10;71.80;;;;;;4975969;28;20486;-72
2023/10/18 14:41:21;;;;;;;3.10;2.80;;;14.20;71.80;;;;;;4976226;28;20450;-74
2023/10/18 14:43:50;;;;;;;3.40;3.10;;;14.20;72.90;;;;;;4976044;28;20477;-74
2023/10/18 14:46:17;;;;;;;3.73;3.37;;;14.20;74.40;;;;;;4975878;28;20544;-74
2023/10/18 14:48:44;;;;;;;3.90;3.60;;;14.20;74.60;;;;;;4975886;28;20940;-72
2023/10/18 14:51:11;;;;;;;4.07;3.67;;;14.00;75.70;;;;;;4975871;28;20457;-72
2023/10/18 14:53:40;;;;;;;3.90;3.57;;;14.00;77.20;;;;;;4975268;28;20452;-73
2023/10/18 14:56:12;;;;;;;3.73;3.43;;;13.80;77.90;;;;;;4975763;28;20450;-73
2023/10/18 14:58:40;;;;;;;5.23;3.77;;;13.90;78.80;;;;;;4975900;28;20826;-72
2023/10/18 15:01:06;;;;;;;3.70;3.40;;;13.80;79.30;;;;;;4975836;28;20490;-73
2023/10/18 15:03:33;;;;;;;3.40;3.10;;;13.70;79.50;;;;;;4976034;28;20446;-73
2023/10/18 15:06:00;;;;;;;3.83;3.50;;;13.70;80.50;;;;;;4975863;28;20494;-74
2023/10/18 15:08:27;;;;;;;4.00;3.70;;;13.50;81.00;;;;;;4976311;28;20477;-75
2023/10/18 15:10:54;;;;;;;4.17;3.77;;;13.50;81.50;;;;;;4976564;28;20548;-76
2023/10/18 15:13:23;;;;;;;4.50;4.10;;;13.70;81.50;;;;;;4975394;28;20445;-75
2023/10/18 15:15:50;;;;;;;4.40;3.50;;;13.60;81.60;;;;;;4976735;28;20477;-74
2023/10/18 15:18:17;;;;;;;4.40;4.00;;;13.70;81.90;;;;;;4976234;28;20448;-74
2023/10/18 15:20:44;;;;;;;4.13;3.83;;;13.70;82.30;;;;;;4975627;28;20442;-73
2023/10/18 15:23:12;;;;;;;5.07;4.67;;;13.60;82.40;;;;;;4975581;28;20858;-72
2023/10/18 15:25:41;;;;;;;3.73;3.43;;;13.60;82.70;;;;;;4974910;28;21053;-73
2023/10/18 15:28:08;;;;;;;5.50;5.00;;;13.40;83.90;;;;;;4975196;28;20454;-73
2023/10/18 15:30:36;;;;;;;4.67;4.27;;;13.20;84.30;;;;;;4975476;28;20453;-73
2023/10/18 15:33:07;;;;;;;5.23;4.83;;;13.10;85.60;;;;;;4975926;28;20470;-73
2023/10/18 15:35:34;;;;;;;5.23;4.80;;;13.20;85.40;;;;;;4978288;28;20466;-73
2023/10/18 15:38:01;;;;;;;4.80;4.40;;;13.10;85.90;;;;;;4975153;28;20934;-73
2023/10/18 15:40:29;;;;;;;5.80;5.40;;;13.10;86.20;;;;;;4975767;28;20450;-73
2023/10/18 15:42:56;;;;;;;5.20;4.70;;;13.10;86.00;;;;;;4975063;28;20482;-73
2023/10/18 15:45:23;;;;;;;5.40;5.00;;;13.10;86.60;;;;;;4974606;28;20983;-72
2023/10/18 15:47:52;;;;;;;6.10;5.60;;;13.10;86.50;;;;;;4974714;28;20943;-73
2023/10/18 15:50:19;;;;;;;6.00;5.50;;;12.90;87.30;;;;;;4975027;28;20461;-72
2023/10/18 15:52:45;;;;;;;5.70;5.30;;;12.90;87.50;;;;;;4975094;28;20456;-73
2023/10/18 15:55:14;;;;;;;6.77;6.23;;;12.90;87.30;;;;;;4975363;28;20477;-72
2023/10/18 15:57:42;;;;;;;8.40;7.70;;;12.80;88.00;;;;;;4974961;28;20453;-72
2023/10/18 16:00:21;;;;;;;9.50;8.67;;;12.90;87.80;;;;;;4974448;28;20946;-73
2023/10/18 16:02:48;;;;;;;8.03;7.33;;;13.00;87.50;;;;;;4974227;28;20900;-73
2023/10/18 16:05:16;;;;;;;8.53;7.83;;;13.10;87.50;;;;;;4973908;28;20474;-73
2023/10/18 16:07:42;;;;;;;7.30;6.70;;;13.00;87.30;;;;;;4974262;28;20448;-73
2023/10/18 16:10:11;;;;;;;6.60;6.00;;;12.90;88.20;;;;;;4974429;28;20442;-73
2023/10/18 16:12:38;;;;;;;6.47;5.97;;;12.90;88.10;;;;;;4974426;28;20446;-73
2023/10/18 16:15:06;;;;;;;11.13;10.03;;;12.90;88.50;;;;;;4997808;23;20509;-72
2023/10/18 16:17:33;;;;;;;5.83;5.33;;;12.90;88.40;;;;;;4974887;28;20453;-73
2023/10/18 16:20:01;;;;;;;7.40;6.80;;;12.90;88.00;;;;;;4974392;28;20481;-71
2023/10/18 16:22:29;;;;;;;7.67;6.97;;;12.90;88.10;;;;;;4974005;28;20822;-72
2023/10/18 16:24:56;;;;;;;8.90;8.10;;;12.90;88.60;;;;;;4974179;28;20502;-72
2023/10/18 16:27:23;;;;;;;8.90;8.20;;;12.90;88.60;;;;;;4975243;28;20522;-73
2023/10/18 16:29:50;;;;;;;8.80;8.20;;;12.90;88.60;;;;;;4974240;28;20450;-73
2023/10/18 16:32:17;;;;;;;7.10;6.50;;;12.80;89.30;;;;;;4974183;28;20484;-73
2023/10/18 16:34:44;;;;;;;8.93;8.20;;;12.50;90.00;;;;;;4973865;28;20560;-72
2023/10/18 16:37:11;;;;;;;9.00;8.40;;;12.40;90.50;;;;;;4974967;28;20496;-72
2023/10/18 16:39:39;;;;;;;8.20;7.60;;;12.30;91.40;;;;;;4974116;28;20446;-73
2023/10/18 16:42:05;;;;;;;6.40;5.90;;;12.30;91.50;;;;;;4974159;28;20449;-73
2023/10/18 16:44:32;;;;;;;6.70;6.10;;;12.50;91.40;;;;;;4974031;28;20466;-72
2023/10/18 16:46:59;;;;;;;6.07;5.57;;;12.60;90.30;;;;;;4974010;28;20576;-73
2023/10/18 16:49:28;;;;;;;5.77;5.27;;;12.50;90.50;;;;;;4974087;28;20505;-72
2023/10/18 16:51:57;;;;;;;5.97;5.47;;;12.40;91.20;;;;;;4974015;28;20964;-72
2023/10/18 16:54:26;;;;;;;6.00;5.60;;;12.60;90.90;;;;;;4974094;28;20565;-72
2023/10/18 16:56:54;;;;;;;5.33;4.93;;;12.70;90.70;;;;;;4973691;28;20460;-74
2023/10/18 16:59:21;;;;;;;6.23;5.73;;;12.70;89.80;;;;;;4973763;28;20943;-72
2023/10/18 17:01:48;;;;;;;4.93;4.53;;;12.80;90.20;;;;;;4973711;28;20991;-72
2023/10/18 17:04:15;;;;;;;5.40;5.00;;;12.70;89.60;;;;;;4973916;28;20461;-72
2023/10/18 17:06:41;;;;;;;6.17;5.77;;;12.70;89.70;;;;;;4973886;28;20925;-72
2023/10/18 17:09:16;;;;;;;5.50;4.67;;;12.80;90.10;;;;;;4973908;28;20449;-71
2023/10/18 17:11:43;;;;;;;6.07;5.57;;;12.80;89.40;;;;;;4973953;28;20446;-73